Time;durP1;ratioP1;P1;durP2;ratioP2;P2;SDS_P1;SDS_P2;PMS_P1;PMS_P2;Temp;Humidity;BMP_temperature;BMP_pressure;BME280_temperature;BME280_humidity;BME280_pressure;Samples;Min_cycle;Max_cycle;Signal;HPM_P1;HPM_P2
2023/01/22 00:00:16;;;;;;;44.10;23.20;;;-1.00;99.90;;;;;;5055829;28;20028;-83
2023/01/22 00:02:41;;;;;;;41.42;22.63;;;-1.00;99.90;;;;;;5073548;28;20021;-85
2023/01/22 00:05:08;;;;;;;45.92;21.30;;;-1.00;99.90;;;;;;5073507;28;20102;-82
2023/01/22 00:07:34;;;;;;;38.95;19.80;;;-1.00;99.90;;;;;;5078573;28;20016;-84
2023/01/22 00:09:59;;;;;;;34.95;17.70;;;-1.00;99.90;;;;;;5094637;28;20103;-82
2023/01/22 00:12:25;;;;;;;40.45;20.25;;;-0.90;99.90;;;;;;5094623;28;20024;-84
2023/01/22 00:14:51;;;;;;;37.05;19.13;;;-0.90;99.90;;;;;;5094681;28;20389;-84
2023/01/22 00:17:17;;;;;;;36.33;18.83;;;-0.90;99.90;;;;;;5076682;28;20039;-83
2023/01/22 00:19:43;;;;;;;48.72;22.75;;;-0.90;99.90;;;;;;5076546;28;20060;-83
2023/01/22 00:22:10;;;;;;;46.05;23.25;;;-0.90;99.90;;;;;;5076688;28;20020;-83
2023/01/22 00:24:36;;;;;;;40.92;21.42;;;-0.90;99.90;;;;;;5076419;28;20116;-83
2023/01/22 00:27:01;;;;;;;47.92;22.73;;;-0.90;99.90;;;;;;5076238;28;20544;-83
2023/01/22 00:29:27;;;;;;;45.08;21.58;;;-0.90;99.90;;;;;;5076266;28;20115;-83
2023/01/22 00:31:52;;;;;;;42.58;21.17;;;-0.90;99.90;;;;;;5094303;28;20081;-83
2023/01/22 00:34:18;;;;;;;47.42;23.98;;;-0.90;99.90;;;;;;5076183;28;20020;-83
2023/01/22 00:36:43;;;;;;;38.47;20.45;;;-0.90;99.90;;;;;;5076285;28;20026;-84
2023/01/22 00:39:09;;;;;;;44.70;22.10;;;-0.90;99.90;;;;;;5094424;28;20063;-83
2023/01/22 00:41:35;;;;;;;43.53;19.98;;;-0.90;99.90;;;;;;5094063;28;20058;-82
2023/01/22 00:44:01;;;;;;;44.08;20.98;;;-0.90;99.90;;;;;;5075877;28;20062;-84
2023/01/22 00:46:26;;;;;;;43.40;22.42;;;-0.90;99.90;;;;;;5075888;28;20020;-83
2023/01/22 00:48:52;;;;;;;44.83;23.65;;;-0.90;99.90;;;;;;5075931;28;20481;-83
2023/01/22 00:51:18;;;;;;;44.33;22.65;;;-1.00;99.90;;;;;;5093965;28;20024;-82
2023/01/22 00:53:44;;;;;;;45.80;22.90;;;-0.90;99.90;;;;;;5076109;28;20128;-84
2023/01/22 00:56:11;;;;;;;53.58;24.52;;;-0.90;99.90;;;;;;5093447;28;20495;-84
2023/01/22 00:58:36;;;;;;;58.28;26.73;;;-1.00;99.90;;;;;;5075832;28;20118;-82
2023/01/22 01:01:03;;;;;;;53.20;27.30;;;-1.00;99.90;;;;;;5093879;28;20123;-82
2023/01/22 01:03:30;;;;;;;55.58;27.23;;;-1.00;99.90;;;;;;5075990;28;20020;-83
2023/01/22 01:06:09;;;;;;;59.60;29.65;;;-1.00;99.90;;;;;;5093777;28;20048;-83
2023/01/22 01:08:37;;;;;;;61.28;29.63;;;-1.00;99.90;;;;;;5075773;28;20043;-83
2023/01/22 01:11:06;;;;;;;62.60;30.17;;;-1.00;99.90;;;;;;5075453;28;20439;-84
2023/01/22 01:13:37;;;;;;;55.47;27.58;;;-1.00;99.90;;;;;;5075412;28;20530;-84
2023/01/22 01:16:05;;;;;;;59.28;28.02;;;-1.00;99.90;;;;;;5093794;28;20504;-83
2023/01/22 01:18:32;;;;;;;59.45;27.42;;;-1.00;99.90;;;;;;5075411;28;20052;-83
2023/01/22 01:20:59;;;;;;;60.35;27.60;;;-1.00;99.90;;;;;;5075967;28;20074;-83
2023/01/22 01:23:26;;;;;;;58.08;28.38;;;-1.00;99.90;;;;;;5075702;28;20020;-83
2023/01/22 01:25:51;;;;;;;57.17;27.80;;;-1.00;99.90;;;;;;5075874;28;20381;-83
2023/01/22 01:28:17;;;;;;;60.72;28.05;;;-1.00;99.90;;;;;;5075763;28;20031;-83
2023/01/22 01:30:44;;;;;;;52.45;25.25;;;-0.90;99.90;;;;;;5075435;28;20031;-82
2023/01/22 01:33:09;;;;;;;57.88;26.27;;;-0.90;99.90;;;;;;5075274;28;20024;-83
2023/01/22 01:35:35;;;;;;;57.40;27.55;;;-1.00;99.90;;;;;;5075444;28;20054;-83
2023/01/22 01:38:01;;;;;;;59.08;26.55;;;-1.00;99.90;;;;;;5093177;28;20456;-83
2023/01/22 01:40:26;;;;;;;52.03;25.83;;;-1.00;99.90;;;;;;5075474;28;20122;-83
2023/01/22 01:42:52;;;;;;;54.53;26.77;;;-1.00;99.90;;;;;;5075213;28;20115;-82
2023/01/22 01:45:30;;;;;;;47.15;24.33;;;-1.00;99.90;;;;;;5075218;28;20032;-82
2023/01/22 01:48:12;;;;;;;49.40;24.45;;;-1.00;99.90;;;;;;5093501;28;20021;-82
2023/01/22 01:50:40;;;;;;;46.55;23.35;;;-1.00;99.90;;;;;;5075011;28;20016;-82
2023/01/22 01:53:07;;;;;;;60.10;25.60;;;-1.10;99.90;;;;;;5093343;28;20030;-82
2023/01/22 01:55:34;;;;;;;42.78;22.20;;;-1.00;99.90;;;;;;5093645;28;20075;-83
2023/01/22 01:58:04;;;;;;;46.45;23.77;;;-1.00;99.90;;;;;;5074732;28;20063;-82
2023/01/22 02:00:32;;;;;;;44.33;22.42;;;-1.10;99.90;;;;;;5093263;28;20024;-83
2023/01/22 02:02:59;;;;;;;43.40;22.50;;;-1.10;99.90;;;;;;5091893;28;20111;-84
2023/01/22 02:05:27;;;;;;;50.40;24.00;;;-1.00;99.90;;;;;;5093304;28;20092;-83
2023/01/22 02:07:52;;;;;;;47.58;22.58;;;-1.00;99.90;;;;;;5075821;28;20028;-83
2023/01/22 02:10:18;;;;;;;44.85;22.30;;;-1.00;99.90;;;;;;5096948;28;20032;-82
2023/01/22 02:12:44;;;;;;;39.28;20.65;;;-1.00;99.90;;;;;;5078893;28;20473;-83
2023/01/22 02:15:10;;;;;;;39.17;21.33;;;-1.00;99.90;;;;;;5097056;28;20493;-83
2023/01/22 02:17:35;;;;;;;51.28;23.08;;;-1.00;99.90;;;;;;5078777;28;20118;-83
2023/01/22 02:20:01;;;;;;;37.28;20.77;;;-1.00;99.90;;;;;;5092941;28;20566;-84
2023/01/22 02:22:29;;;;;;;37.25;19.20;;;-1.00;99.90;;;;;;5095606;28;20020;-84
2023/01/22 02:24:55;;;;;;;44.22;20.48;;;-1.00;99.90;;;;;;5095599;28;20028;-82
2023/01/22 02:27:21;;;;;;;36.15;18.77;;;-1.00;99.90;;;;;;5096826;28;20020;-82
2023/01/22 02:29:47;;;;;;;38.00;18.77;;;-1.00;99.90;;;;;;5095364;28;20016;-83
2023/01/22 02:32:13;;;;;;;45.65;20.77;;;-1.10;99.90;;;;;;5095600;28;20489;-83
2023/01/22 02:34:38;;;;;;;46.72;22.77;;;-1.10;99.90;;;;;;5096069;28;20020;-82
2023/01/22 02:37:04;;;;;;;39.33;18.25;;;-1.10;99.90;;;;;;5095316;28;20028;-83
2023/01/22 02:39:30;;;;;;;40.97;19.73;;;-1.10;99.90;;;;;;5095369;28;20115;-84
2023/01/22 02:41:56;;;;;;;32.63;18.50;;;-1.10;99.90;;;;;;5096605;28;20095;-82
2023/01/22 02:44:22;;;;;;;31.42;15.60;;;-1.10;99.90;;;;;;5095499;28;20028;-84
2023/01/22 02:46:47;;;;;;;24.70;13.90;;;-1.10;99.90;;;;;;5095621;28;20465;-83
2023/01/22 02:49:13;;;;;;;22.30;13.23;;;-1.10;99.90;;;;;;5095383;28;20470;-83
2023/01/22 02:51:38;;;;;;;21.13;12.85;;;-1.10;99.90;;;;;;5095113;28;20149;-82
2023/01/22 02:54:04;;;;;;;22.13;12.43;;;-1.10;99.90;;;;;;5096323;28;20438;-83
2023/01/22 02:56:31;;;;;;;23.23;12.55;;;-1.10;99.90;;;;;;5095159;28;20020;-84
2023/01/22 02:59:00;;;;;;;21.67;10.75;;;-1.20;99.90;;;;;;5095115;28;20492;-83
2023/01/22 03:01:25;;;;;;;19.10;10.35;;;-1.20;99.90;;;;;;5094765;28;20074;-84
2023/01/22 03:03:58;;;;;;;17.67;10.05;;;-1.20;99.90;;;;;;5096469;28;20024;-83
2023/01/22 03:06:26;;;;;;;15.70;10.05;;;-1.20;99.90;;;;;;5096077;28;20103;-83
2023/01/22 03:08:57;;;;;;;17.17;9.23;;;-1.20;99.90;;;;;;5094761;28;20115;-83
2023/01/22 03:11:24;;;;;;;16.85;9.70;;;-1.20;99.90;;;;;;5094772;28;20028;-84
2023/01/22 03:22:04;;;;;;;14.68;9.38;;;-1.20;99.90;;;;;;5095893;28;20405;-83
2023/01/22 03:24:30;;;;;;;15.73;9.48;;;-1.30;99.90;;;;;;5094507;28;20043;-82
2023/01/22 03:26:56;;;;;;;14.95;8.68;;;-1.30;99.90;;;;;;5094863;28;20492;-84
2023/01/22 03:29:21;;;;;;;14.43;9.60;;;-1.20;99.90;;;;;;5094392;28;20024;-83
2023/01/22 03:31:47;;;;;;;16.17;9.32;;;-1.30;99.90;;;;;;5095864;28;20062;-82
2023/01/22 03:34:17;;;;;;;14.10;8.13;;;-1.30;99.90;;;;;;5095533;28;20024;-82
2023/01/22 03:36:43;;;;;;;13.38;8.60;;;-1.30;99.90;;;;;;5095775;28;20030;-83
2023/01/22 03:39:10;;;;;;;14.05;8.60;;;-1.30;99.90;;;;;;5094032;28;20031;-83
2023/01/22 03:41:36;;;;;;;13.55;7.85;;;-1.30;99.90;;;;;;5094115;28;20031;-84
2023/01/22 03:44:02;;;;;;;16.45;9.27;;;-1.30;99.90;;;;;;5094123;28;20016;-83
2023/01/22 03:46:28;;;;;;;14.25;8.25;;;-1.30;99.90;;;;;;5095446;28;20448;-83
2023/01/22 03:48:54;;;;;;;16.15;8.93;;;-1.30;99.90;;;;;;5095187;28;20028;-83
2023/01/22 03:51:21;;;;;;;10.88;8.07;;;-1.30;99.90;;;;;;5095199;28;20493;-83
2023/01/22 03:53:47;;;;;;;15.88;8.27;;;-1.30;99.90;;;;;;5093834;28;20074;-83
2023/01/22 03:56:24;;;;;;;13.35;8.57;;;-1.30;99.90;;;;;;5094039;28;20473;-83
2023/01/22 03:58:50;;;;;;;16.25;9.80;;;-1.30;99.90;;;;;;5094177;28;20032;-83
2023/01/22 04:01:19;;;;;;;13.98;8.90;;;-1.30;99.90;;;;;;5081031;28;20016;-83
2023/01/22 04:03:45;;;;;;;19.48;9.05;;;-1.30;99.90;;;;;;5073766;28;20035;-83
2023/01/22 04:06:12;;;;;;;14.90;8.25;;;-1.30;99.90;;;;;;5075127;28;20024;-83
2023/01/22 04:08:40;;;;;;;12.40;8.63;;;-1.30;99.90;;;;;;5073706;28;20023;-83
2023/01/22 04:11:06;;;;;;;15.13;8.38;;;-1.30;99.90;;;;;;5074947;28;20100;-82
2023/01/22 04:13:34;;;;;;;12.80;7.03;;;-1.30;99.90;;;;;;5073911;28;20364;-83
2023/01/22 04:16:00;;;;;;;14.50;7.93;;;-1.40;99.90;;;;;;5073644;28;20385;-83
2023/01/22 04:18:25;;;;;;;12.52;8.25;;;-1.40;99.90;;;;;;5076278;28;20059;-83
2023/01/22 04:20:51;;;;;;;13.77;7.68;;;-1.40;99.90;;;;;;5076575;28;20111;-83
2023/01/22 04:23:18;;;;;;;14.35;9.38;;;-1.40;99.90;;;;;;5076410;28;20024;-84
2023/01/22 04:25:44;;;;;;;16.88;9.35;;;-1.40;99.90;;;;;;5094348;28;20532;-83
2023/01/22 04:28:11;;;;;;;17.08;10.68;;;-1.30;99.90;;;;;;5076414;28;20016;-83
2023/01/22 04:30:37;;;;;;;13.45;8.68;;;-1.40;99.90;;;;;;5075651;28;20024;-84
2023/01/22 04:33:03;;;;;;;16.35;9.50;;;-1.40;99.90;;;;;;5094329;28;20028;-83
2023/01/22 04:35:29;;;;;;;14.32;9.98;;;-1.40;99.90;;;;;;5076262;28;20024;-83
2023/01/22 04:37:54;;;;;;;15.95;9.88;;;-1.30;99.90;;;;;;5076411;28;20032;-83
2023/01/22 04:40:20;;;;;;;18.95;10.23;;;-1.30;99.90;;;;;;5076114;28;20371;-82
2023/01/22 04:42:46;;;;;;;17.05;9.70;;;-1.30;99.90;;;;;;5094158;28;20066;-82
2023/01/22 04:45:12;;;;;;;15.63;10.25;;;-1.30;99.90;;;;;;5076019;28;20020;-82
2023/01/22 04:47:42;;;;;;;18.10;9.77;;;-1.30;99.90;;;;;;5076173;28;20109;-84
2023/01/22 04:50:16;;;;;;;19.80;11.43;;;-1.30;99.90;;;;;;5075985;28;20117;-83
2023/01/22 04:52:41;;;;;;;16.38;10.30;;;-1.30;99.90;;;;;;5094176;28;20043;-84
2023/01/22 04:55:08;;;;;;;16.50;10.95;;;-1.30;99.90;;;;;;5094325;28;20054;-83
2023/01/22 04:57:33;;;;;;;22.60;11.77;;;-1.30;99.90;;;;;;5075714;28;20036;-83
2023/01/22 04:59:59;;;;;;;17.77;11.40;;;-1.30;99.90;;;;;;5076105;28;20016;-83
2023/01/22 05:02:24;;;;;;;19.10;10.77;;;-1.30;99.90;;;;;;5075749;28;20016;-83
2023/01/22 05:04:50;;;;;;;17.38;10.32;;;-1.40;99.90;;;;;;5094187;28;20491;-82
2023/01/22 05:07:15;;;;;;;14.77;9.60;;;-1.30;99.90;;;;;;5075961;28;20020;-83
2023/01/22 05:09:41;;;;;;;19.52;10.93;;;-1.30;99.90;;;;;;5093703;28;20051;-83
2023/01/22 05:12:07;;;;;;;20.98;11.68;;;-1.30;99.90;;;;;;5075833;28;20474;-83
2023/01/22 05:14:32;;;;;;;21.42;10.60;;;-1.40;99.90;;;;;;5093616;28;20039;-83
2023/01/22 05:16:58;;;;;;;19.70;12.27;;;-1.40;99.90;;;;;;5093550;28;20490;-83
2023/01/22 05:19:23;;;;;;;25.20;12.43;;;-1.40;99.90;;;;;;5063181;28;20502;-83
2023/01/22 05:21:49;;;;;;;20.48;13.00;;;-1.30;99.90;;;;;;5055624;28;20471;-84
2023/01/22 05:24:15;;;;;;;22.45;12.60;;;-1.40;99.90;;;;;;5073321;28;20027;-84
2023/01/22 05:26:40;;;;;;;16.67;10.48;;;-1.30;99.90;;;;;;5055831;28;20488;-84
2023/01/22 05:29:06;;;;;;;19.13;11.80;;;-1.30;99.90;;;;;;5055297;28;20066;-84
2023/01/22 05:31:31;;;;;;;22.13;12.57;;;-1.30;99.90;;;;;;5073316;28;20472;-83
2023/01/22 05:33:57;;;;;;;21.25;12.35;;;-1.30;99.90;;;;;;5073177;28;20097;-83
2023/01/22 05:36:23;;;;;;;21.17;12.10;;;-1.30;99.90;;;;;;5055476;28;20027;-84
2023/01/22 05:38:48;;;;;;;24.45;12.88;;;-1.30;99.90;;;;;;5072952;28;20067;-83
2023/01/22 05:41:14;;;;;;;21.50;11.75;;;-1.30;99.90;;;;;;5055201;28;20020;-83
2023/01/22 05:43:39;;;;;;;20.45;12.45;;;-1.30;99.90;;;;;;5058978;28;20017;-83
2023/01/22 05:46:05;;;;;;;23.70;12.48;;;-1.30;99.90;;;;;;5059740;28;20021;-84
2023/01/22 05:48:31;;;;;;;19.40;11.43;;;-1.30;99.90;;;;;;5077277;28;20031;-82
2023/01/22 05:51:03;;;;;;;24.92;12.82;;;-1.30;99.90;;;;;;5059557;28;20045;-84
2023/01/22 05:53:29;;;;;;;18.65;10.95;;;-1.40;99.90;;;;;;5077346;28;20028;-83
2023/01/22 05:55:54;;;;;;;22.45;12.02;;;-1.40;99.90;;;;;;5059318;28;20025;-83
2023/01/22 05:58:20;;;;;;;23.73;13.00;;;-1.30;99.90;;;;;;5077178;28;20060;-82
2023/01/22 06:00:45;;;;;;;22.38;12.95;;;-1.30;99.90;;;;;;5075910;28;20016;-83
2023/01/22 06:03:11;;;;;;;21.83;12.13;;;-1.30;99.90;;;;;;5059094;28;20031;-83
2023/01/22 06:05:36;;;;;;;22.17;12.02;;;-1.30;99.90;;;;;;5076989;28;20052;-83
2023/01/22 06:08:02;;;;;;;24.00;14.82;;;-1.30;99.90;;;;;;5059240;28;20029;-82
2023/01/22 06:10:27;;;;;;;18.80;11.90;;;-1.30;99.90;;;;;;5059145;28;20025;-83
2023/01/22 06:12:53;;;;;;;24.67;14.65;;;-1.40;99.90;;;;;;5059096;28;20029;-83
2023/01/22 06:15:18;;;;;;;40.00;22.05;;;-1.30;99.90;;;;;;5075599;28;20103;-83
2023/01/22 06:17:44;;;;;;;25.05;14.20;;;-1.30;99.90;;;;;;5076948;28;20378;-83
2023/01/22 06:20:10;;;;;;;30.88;17.02;;;-1.30;99.90;;;;;;5073809;28;20117;-83
2023/01/22 06:22:35;;;;;;;38.33;20.40;;;-1.30;99.90;;;;;;5075615;28;20179;-83
2023/01/22 06:25:02;;;;;;;22.90;14.00;;;-1.30;99.90;;;;;;5075267;28;20025;-83
2023/01/22 06:27:28;;;;;;;23.02;13.07;;;-1.30;99.90;;;;;;5075244;28;20032;-83
2023/01/22 06:29:53;;;;;;;23.73;14.18;;;-1.30;99.90;;;;;;5075156;28;20028;-83
2023/01/22 06:32:19;;;;;;;24.95;14.77;;;-1.30;99.90;;;;;;5076731;28;20031;-83
2023/01/22 06:34:44;;;;;;;23.17;13.48;;;-1.30;99.90;;;;;;5076350;28;20020;-84
2023/01/22 06:37:10;;;;;;;19.65;11.63;;;-1.30;99.90;;;;;;5075233;28;20082;-84
2023/01/22 06:39:36;;;;;;;22.45;14.15;;;-1.30;99.90;;;;;;5076328;28;20405;-83
2023/01/22 06:42:02;;;;;;;18.77;11.15;;;-1.30;99.90;;;;;;5074929;28;20359;-82
2023/01/22 06:44:28;;;;;;;21.00;11.85;;;-1.30;99.90;;;;;;5074912;28;20020;-82
2023/01/22 06:46:53;;;;;;;20.92;11.45;;;-1.30;99.90;;;;;;5076123;28;20116;-83
2023/01/22 06:49:19;;;;;;;21.60;13.23;;;-1.30;99.90;;;;;;5075070;28;20033;-83
2023/01/22 06:51:45;;;;;;;18.05;10.23;;;-1.30;99.90;;;;;;5076179;28;20031;-83
2023/01/22 06:54:11;;;;;;;18.60;11.02;;;-1.30;99.90;;;;;;5075370;28;20032;-83
2023/01/22 06:56:37;;;;;;;22.48;11.75;;;-1.30;99.90;;;;;;5074790;28;20021;-83
2023/01/22 06:59:02;;;;;;;23.42;11.93;;;-1.30;99.90;;;;;;5074618;28;20520;-82
2023/01/22 07:01:28;;;;;;;19.50;9.50;;;-1.30;99.90;;;;;;5074668;28;20115;-83
2023/01/22 07:03:53;;;;;;;24.77;13.07;;;-1.30;99.90;;;;;;5073926;28;20028;-84
2023/01/22 07:06:19;;;;;;;17.50;11.63;;;-1.20;99.90;;;;;;5074832;28;20078;-84
2023/01/22 07:08:45;;;;;;;20.50;11.30;;;-1.20;99.90;;;;;;5074698;28;20037;-84
2023/01/22 07:11:10;;;;;;;22.55;13.32;;;-1.20;99.90;;;;;;5075767;28;20463;-84
2023/01/22 07:13:36;;;;;;;26.30;13.50;;;-1.20;99.90;;;;;;5074164;28;20033;-83
2023/01/22 07:16:03;;;;;;;24.77;14.88;;;-1.10;99.90;;;;;;5074329;28;20021;-83
2023/01/22 07:18:29;;;;;;;22.95;13.75;;;-1.10;99.90;;;;;;5075158;28;20059;-84
2023/01/22 07:20:58;;;;;;;21.77;12.75;;;-1.10;99.90;;;;;;5074310;28;20021;-84
2023/01/22 07:23:24;;;;;;;24.73;11.98;;;-1.10;99.90;;;;;;5075332;28;20032;-83
2023/01/22 07:25:49;;;;;;;20.48;12.40;;;-1.10;99.90;;;;;;5074463;28;20066;-83
2023/01/22 07:28:15;;;;;;;22.27;12.30;;;-1.00;99.90;;;;;;5074044;28;20470;-83
2023/01/22 07:30:45;;;;;;;18.75;11.93;;;-1.00;99.90;;;;;;5074270;28;20155;-83
2023/01/22 07:33:12;;;;;;;21.88;11.85;;;-1.00;99.90;;;;;;5075385;28;20016;-83
2023/01/22 07:35:38;;;;;;;19.30;11.30;;;-0.90;99.90;;;;;;5075511;28;20032;-82
2023/01/22 07:38:04;;;;;;;23.50;12.07;;;-0.90;99.90;;;;;;5074165;28;20036;-84
2023/01/22 07:40:30;;;;;;;22.80;12.90;;;-0.90;99.90;;;;;;5074854;28;20036;-84
2023/01/22 07:42:56;;;;;;;19.75;10.95;;;-0.80;99.90;;;;;;5075017;28;20101;-84
2023/01/22 07:45:23;;;;;;;21.88;12.65;;;-0.80;99.90;;;;;;5074687;28;20109;-84
2023/01/22 07:47:54;;;;;;;16.25;9.85;;;-0.70;99.90;;;;;;5073391;28;20021;-84
2023/01/22 07:50:21;;;;;;;19.60;10.27;;;-0.70;99.90;;;;;;5074526;28;20104;-84
2023/01/22 07:52:47;;;;;;;22.95;11.55;;;-0.70;99.90;;;;;;5074541;28;20028;-84
2023/01/22 07:55:13;;;;;;;24.63;11.27;;;-0.70;99.90;;;;;;5073352;28;20036;-84
2023/01/22 07:57:38;;;;;;;15.93;10.30;;;-0.60;99.90;;;;;;5072651;28;20033;-84
2023/01/22 08:00:04;;;;;;;15.35;8.45;;;-0.60;99.90;;;;;;5072869;28;20470;-85
2023/01/22 08:02:30;;;;;;;20.95;11.95;;;-0.50;99.90;;;;;;5072800;28;20036;-84
2023/01/22 08:04:56;;;;;;;16.38;9.52;;;-0.50;99.90;;;;;;5073291;28;20020;-83
2023/01/22 08:07:22;;;;;;;17.55;11.15;;;-0.50;99.90;;;;;;5074404;28;20052;-84
2023/01/22 08:09:48;;;;;;;20.25;12.25;;;-0.40;99.90;;;;;;5074176;28;20047;-83
2023/01/22 08:12:13;;;;;;;21.60;12.27;;;-0.40;99.90;;;;;;5072943;28;20533;-83
2023/01/22 08:14:39;;;;;;;17.88;10.18;;;-0.40;99.90;;;;;;5074093;28;20021;-83
2023/01/22 08:17:04;;;;;;;19.17;10.13;;;-0.40;99.90;;;;;;5072717;28;20382;-83
2023/01/22 08:19:30;;;;;;;16.38;10.48;;;-0.40;99.90;;;;;;5075821;28;20059;-84
2023/01/22 08:21:56;;;;;;;17.77;9.98;;;-0.30;99.90;;;;;;5076352;28;20020;-84
2023/01/22 08:24:21;;;;;;;16.55;10.43;;;-0.30;99.90;;;;;;5075969;28;20028;-83
2023/01/22 08:26:47;;;;;;;25.33;11.60;;;-0.30;99.90;;;;;;5076063;28;20474;-84
2023/01/22 08:29:13;;;;;;;17.77;10.05;;;-0.30;99.90;;;;;;5094305;28;20150;-84
2023/01/22 08:31:39;;;;;;;18.75;9.75;;;-0.30;99.90;;;;;;5075728;28;20055;-84
2023/01/22 08:34:05;;;;;;;20.33;10.57;;;-0.20;99.90;;;;;;5093807;28;20032;-83
2023/01/22 08:36:30;;;;;;;14.60;9.43;;;-0.20;99.90;;;;;;5076131;28;20350;-84
2023/01/22 08:38:56;;;;;;;16.73;9.50;;;-0.20;99.90;;;;;;5074281;28;20122;-84
2023/01/22 08:41:23;;;;;;;20.13;11.23;;;-0.20;99.90;;;;;;5075069;28;20020;-84
2023/01/22 08:43:50;;;;;;;23.50;12.82;;;-0.20;99.90;;;;;;5093562;28;20024;-84
2023/01/22 08:46:15;;;;;;;18.50;11.10;;;-0.10;99.90;;;;;;5093188;28;20412;-84
2023/01/22 08:48:42;;;;;;;17.58;10.35;;;-0.10;99.90;;;;;;5075238;28;20026;-84
2023/01/22 08:51:09;;;;;;;20.10;11.00;;;-0.10;99.90;;;;;;5075838;28;20089;-84
2023/01/22 08:53:34;;;;;;;16.27;9.90;;;-0.10;99.90;;;;;;5075454;28;20427;-84
2023/01/22 08:56:00;;;;;;;20.10;10.45;;;-0.10;99.90;;;;;;5093459;28;20103;-83
2023/01/22 08:58:26;;;;;;;20.13;11.55;;;0.00;99.90;;;;;;5075237;28;20069;-83
2023/01/22 09:00:53;;;;;;;18.85;10.13;;;0.00;99.90;;;;;;5093524;28;20027;-83
2023/01/22 09:03:20;;;;;;;19.42;11.32;;;0.00;99.90;;;;;;5075273;28;20033;-83
2023/01/22 09:05:45;;;;;;;15.35;9.25;;;0.00;99.90;;;;;;5075532;28;20371;-83
2023/01/22 09:08:11;;;;;;;14.80;9.35;;;0.10;99.90;;;;;;5075440;28;20028;-83
2023/01/22 09:10:36;;;;;;;20.02;11.15;;;0.10;99.90;;;;;;5093309;28;20020;-83
2023/01/22 09:13:02;;;;;;;18.27;9.98;;;0.20;99.90;;;;;;5093254;28;20025;-83
2023/01/22 09:15:28;;;;;;;18.88;10.43;;;0.20;99.90;;;;;;5093279;28;20099;-82
2023/01/22 09:17:53;;;;;;;15.82;8.65;;;0.30;99.90;;;;;;5092988;28;20043;-83
2023/01/22 09:20:19;;;;;;;16.45;10.52;;;0.40;99.90;;;;;;5074813;28;20126;-83
2023/01/22 09:22:45;;;;;;;17.50;10.57;;;0.40;99.90;;;;;;5093148;28;20028;-83
2023/01/22 09:25:11;;;;;;;20.52;11.45;;;0.30;99.90;;;;;;5092879;28;20102;-83
2023/01/22 09:27:37;;;;;;;17.88;8.98;;;0.40;99.90;;;;;;5093185;28;20063;-83
2023/01/22 09:30:03;;;;;;;19.83;11.38;;;0.30;99.90;;;;;;5074908;28;20085;-83
2023/01/22 09:32:29;;;;;;;21.95;11.70;;;0.30;99.90;;;;;;5092935;28;20107;-83
2023/01/22 09:34:54;;;;;;;19.02;10.63;;;0.30;99.90;;;;;;5074884;28;20030;-83
2023/01/22 09:37:20;;;;;;;21.90;12.25;;;0.30;99.90;;;;;;5093334;28;20091;-83
2023/01/22 09:39:49;;;;;;;28.20;15.05;;;0.30;99.90;;;;;;5092956;28;20059;-83
2023/01/22 09:42:27;;;;;;;23.83;14.05;;;0.30;99.90;;;;;;5092895;28;20366;-83
2023/01/22 09:44:57;;;;;;;20.38;13.10;;;0.40;99.90;;;;;;5075027;28;20036;-83
2023/01/22 09:47:43;;;;;;;19.33;12.02;;;0.40;99.90;;;;;;5074838;28;20027;-83
2023/01/22 09:50:24;;;;;;;15.55;9.70;;;0.40;99.90;;;;;;5093194;28;20377;-83
2023/01/22 09:52:52;;;;;;;21.85;12.73;;;0.40;99.90;;;;;;5074625;28;20399;-83
2023/01/22 09:55:23;;;;;;;17.67;10.65;;;0.40;99.90;;;;;;5092788;28;20021;-83
2023/01/22 09:57:53;;;;;;;13.02;8.82;;;0.40;99.90;;;;;;5092774;28;20028;-83
2023/01/22 10:01:02;;;;;;;18.63;11.52;;;0.30;99.90;;;;;;5092700;28;20017;-83
2023/01/22 10:03:44;;;;;;;19.42;12.20;;;0.30;99.90;;;;;;5043691;28;20573;-83
2023/01/22 10:06:17;;;;;;;22.83;12.77;;;0.30;99.90;;;;;;5054844;28;20017;-83
2023/01/22 10:08:42;;;;;;;;;;;0.30;99.90;;;;;;5054830;28;20017;-83
2023/01/22 10:11:09;;;;;;;20.15;10.88;;;0.30;99.90;;;;;;5072581;28;19911;-83
2023/01/22 10:13:37;;;;;;;19.27;11.57;;;0.30;99.90;;;;;;5074896;28;20470;-83
2023/01/22 10:16:04;;;;;;;21.80;12.38;;;0.20;99.90;;;;;;5074434;28;20088;-83
2023/01/22 10:18:54;;;;;;;18.95;10.82;;;0.20;99.90;;;;;;5087361;28;20048;-83
2023/01/22 10:21:21;;;;;;;21.48;11.45;;;0.30;99.90;;;;;;5071515;28;20021;-83
2023/01/22 10:23:49;;;;;;;20.02;11.13;;;0.30;99.90;;;;;;5072674;28;20031;-83
2023/01/22 10:26:20;;;;;;;19.05;9.63;;;0.40;99.90;;;;;;5072306;28;20074;-83
2023/01/22 10:28:49;;;;;;;17.98;11.23;;;0.30;99.90;;;;;;5072820;28;20025;-83
2023/01/22 10:31:32;;;;;;;22.83;12.07;;;0.40;99.90;;;;;;5076120;28;20020;-83
2023/01/22 10:34:00;;;;;;;14.20;9.13;;;0.50;99.90;;;;;;5076066;28;20124;-83
2023/01/22 10:36:27;;;;;;;19.33;11.15;;;0.40;99.90;;;;;;5075685;28;20494;-83
2023/01/22 10:39:12;;;;;;;23.35;14.82;;;0.50;99.90;;;;;;5074534;28;20185;-83
2023/01/22 10:41:39;;;;;;;21.73;13.13;;;0.50;99.90;;;;;;5075815;28;20031;-83
2023/01/22 10:44:25;;;;;;;14.57;8.82;;;0.60;99.90;;;;;;5074698;28;20480;-83
2023/01/22 10:46:52;;;;;;;21.98;11.88;;;0.60;99.90;;;;;;5074521;28;20040;-84
2023/01/22 10:49:24;;;;;;;19.75;9.30;;;0.80;99.90;;;;;;5073586;28;20031;-83
2023/01/22 10:51:58;;;;;;;15.68;10.70;;;0.70;99.90;;;;;;5074991;28;20020;-83
2023/01/22 10:54:31;;;;;;;20.77;11.57;;;0.70;99.90;;;;;;5073710;28;20031;-83
2023/01/22 10:57:15;;;;;;;22.52;11.30;;;0.70;99.90;;;;;;5073709;28;20028;-81
2023/01/22 10:59:48;;;;;;;19.85;11.68;;;0.70;99.90;;;;;;5075046;28;20025;-85
2023/01/22 11:02:22;;;;;;;17.17;10.02;;;0.70;99.90;;;;;;5073865;28;20034;-87
2023/01/22 11:04:49;;;;;;;21.02;11.15;;;0.70;99.90;;;;;;5073329;28;20497;-86
2023/01/22 11:07:21;;;;;;;21.30;12.40;;;0.70;99.90;;;;;;5074515;28;20024;-87
2023/01/22 11:09:55;;;;;;;22.60;11.45;;;0.70;99.90;;;;;;5075027;28;20100;-86
2023/01/22 11:12:29;;;;;;;20.63;13.18;;;0.70;99.90;;;;;;5074925;28;20031;-86
2023/01/22 11:15:05;;;;;;;21.65;11.90;;;0.70;99.90;;;;;;5056369;28;20052;-87
2023/01/22 11:17:42;;;;;;;21.45;12.43;;;0.60;99.90;;;;;;5073928;28;20023;-85
2023/01/22 11:20:20;;;;;;;26.35;13.35;;;0.60;99.90;;;;;;5074932;28;20046;-86
2023/01/22 11:22:58;;;;;;;19.70;12.02;;;0.60;99.90;;;;;;5077200;28;20028;-83
2023/01/22 11:25:25;;;;;;;21.48;13.07;;;0.50;99.90;;;;;;5095326;28;20030;-83
2023/01/22 11:28:00;;;;;;;22.02;11.43;;;0.60;99.90;;;;;;5095298;28;20504;-83
2023/01/22 11:31:01;;;;;;;23.10;12.45;;;0.50;99.90;;;;;;5095298;28;20024;-83
2023/01/22 11:33:44;;;;;;;27.95;13.95;;;0.50;99.90;;;;;;5095361;28;20027;-83
2023/01/22 11:36:26;;;;;;;24.38;14.88;;;0.50;99.90;;;;;;5095309;28;20052;-83
2023/01/22 11:38:58;;;;;;;21.65;12.25;;;0.50;99.90;;;;;;5095009;28;20036;-84
2023/01/22 11:41:39;;;;;;;26.20;14.52;;;0.50;99.90;;;;;;5076500;28;20427;-83
2023/01/22 11:44:35;;;;;;;27.40;14.80;;;0.50;99.90;;;;;;5090266;28;20024;-84
2023/01/22 11:47:39;;;;;;;26.52;14.05;;;0.50;99.90;;;;;;5055058;28;20424;-84
2023/01/22 11:50:32;;;;;;;26.85;14.82;;;0.40;99.90;;;;;;4976168;28;20034;-84
2023/01/22 11:53:10;;;;;;;30.77;16.70;;;0.40;99.90;;;;;;4990818;28;20045;-84
2023/01/22 11:56:07;;;;;;;30.05;15.63;;;0.40;99.90;;;;;;5032636;28;20029;-85
2023/01/22 11:58:41;;;;;;;27.95;15.45;;;0.40;99.90;;;;;;5073679;28;20040;-85
2023/01/22 12:01:20;;;;;;;29.55;15.95;;;0.50;99.90;;;;;;5073132;28;20040;-83
2023/01/22 12:04:14;;;;;;;30.90;16.40;;;0.50;99.90;;;;;;5075455;28;20062;-84
2023/01/22 12:07:19;;;;;;;27.27;15.60;;;0.50;99.90;;;;;;5075640;28;20059;-83
2023/01/22 12:10:00;;;;;;;28.80;14.57;;;0.50;99.90;;;;;;5075623;28;20366;-83
2023/01/22 12:12:49;;;;;;;31.80;15.20;;;0.50;99.90;;;;;;5080150;28;20031;-85
2023/01/22 12:15:32;;;;;;;27.10;15.18;;;0.50;99.90;;;;;;5075569;28;20051;-86
2023/01/22 12:18:15;;;;;;;33.85;15.50;;;0.50;99.90;;;;;;5092182;28;20044;-85
2023/01/22 12:21:06;;;;;;;32.45;16.25;;;0.50;99.90;;;;;;5071693;28;20017;-84
2023/01/22 12:23:39;;;;;;;23.45;14.68;;;0.50;99.90;;;;;;5073608;28;20013;-85
2023/01/22 12:26:22;;;;;;;27.85;15.27;;;0.40;99.90;;;;;;5072108;28;20060;-86
2023/01/22 12:29:10;;;;;;;33.55;16.55;;;0.50;99.90;;;;;;5071640;28;20032;-85
2023/01/22 12:31:51;;;;;;;33.28;17.35;;;0.50;99.90;;;;;;5074753;28;20032;-86
2023/01/22 12:34:54;;;;;;;32.95;17.35;;;0.50;99.90;;;;;;5068192;28;20020;-85
2023/01/22 12:37:25;;;;;;;33.15;17.10;;;0.50;99.90;;;;;;5073347;28;20029;-84
2023/01/22 12:40:04;;;;;;;34.55;16.75;;;0.50;99.90;;;;;;5071787;28;20036;-84
2023/01/22 12:43:04;;;;;;;43.42;21.88;;;0.50;99.90;;;;;;5071629;28;20028;-84
2023/01/22 12:45:37;;;;;;;33.17;17.92;;;0.50;99.90;;;;;;5053218;28;20029;-84
2023/01/22 12:48:08;;;;;;;33.00;16.42;;;0.50;99.90;;;;;;5071821;28;20537;-84
2023/01/22 12:50:36;;;;;;;28.52;16.60;;;0.50;99.90;;;;;;5071552;28;20028;-84